Time;durP1;ratioP1;P1;durP2;ratioP2;P2;SDS_P1;SDS_P2;PMS_P1;PMS_P2;Temp;Humidity;BMP_temperature;BMP_pressure;BME280_temperature;BME280_humidity;BME280_pressure;Samples;Min_cycle;Max_cycle;Signal;HPM_P1;HPM_P2
2023/05/04 00:01:49;;;;;;;8.30;4.77;;;4.50;99.90;;;;;;5087739;28;20217;-77
2023/05/04 00:04:15;;;;;;;9.23;4.83;;;4.70;99.90;;;;;;5082460;28;20217;-79
2023/05/04 00:06:42;;;;;;;10.40;4.40;;;4.80;99.90;;;;;;5076806;28;20695;-78
2023/05/04 00:09:12;;;;;;;9.03;4.57;;;4.80;99.90;;;;;;5085477;28;20221;-77
2023/05/04 00:11:38;;;;;;;6.67;4.30;;;4.90;99.90;;;;;;5082646;28;20217;-78
2023/05/04 00:14:05;;;;;;;6.80;4.13;;;4.80;99.90;;;;;;5082432;28;20197;-77
2023/05/04 00:16:36;;;;;;;8.20;4.10;;;4.90;99.90;;;;;;5090624;28;20207;-77
2023/05/04 00:19:03;;;;;;;6.67;4.50;;;4.90;99.90;;;;;;5082222;28;20209;-78
2023/05/04 00:21:30;;;;;;;7.87;4.13;;;4.80;99.90;;;;;;5095863;28;20237;-78
2023/05/04 00:23:56;;;;;;;6.83;3.93;;;4.90;99.90;;;;;;5094438;28;20209;-77
2023/05/04 00:26:23;;;;;;;7.40;4.67;;;4.90;99.90;;;;;;5111193;28;20268;-77
2023/05/04 00:28:50;;;;;;;10.80;4.83;;;5.10;99.90;;;;;;5110346;28;20568;-77
2023/05/04 00:31:17;;;;;;;7.30;4.60;;;5.00;99.90;;;;;;5084336;28;20227;-77
2023/05/04 00:33:46;;;;;;;7.50;5.23;;;5.00;99.90;;;;;;5074958;28;20198;-77
2023/05/04 00:36:13;;;;;;;7.20;4.47;;;4.90;99.90;;;;;;5091427;28;20212;-77
2023/05/04 00:38:48;;;;;;;7.17;4.27;;;4.80;99.90;;;;;;5093924;28;20202;-77
2023/05/04 00:41:15;;;;;;;6.40;3.80;;;4.30;99.90;;;;;;5091603;28;20271;-77
2023/05/04 00:43:42;;;;;;;6.00;4.00;;;4.20;99.90;;;;;;5088118;28;20209;-77
2023/05/04 00:46:10;;;;;;;5.37;3.50;;;4.00;99.90;;;;;;5093437;28;20193;-77
2023/05/04 00:48:37;;;;;;;7.97;3.77;;;3.80;99.90;;;;;;5090546;28;20217;-77
2023/05/04 00:51:07;;;;;;;5.33;4.00;;;4.00;99.90;;;;;;5088321;28;20558;-78
2023/05/04 00:53:34;;;;;;;5.53;3.90;;;4.00;99.90;;;;;;5086139;28;20206;-77
2023/05/04 00:56:01;;;;;;;5.57;3.67;;;3.70;99.90;;;;;;5074264;28;21042;-77
2023/05/04 00:58:29;;;;;;;5.40;3.73;;;3.40;99.90;;;;;;5073618;28;20712;-77
2023/05/04 01:00:56;;;;;;;11.23;4.70;;;3.30;99.90;;;;;;5073250;28;20210;-77
2023/05/04 01:03:23;;;;;;;8.23;4.30;;;3.40;99.90;;;;;;5073791;28;20209;-77
2023/05/04 01:05:57;;;;;;;6.93;4.53;;;3.60;99.90;;;;;;5082499;28;20727;-77
2023/05/04 01:08:30;;;;;;;6.37;4.23;;;3.60;99.90;;;;;;5077667;28;20222;-78
2023/05/04 01:11:03;;;;;;;8.47;4.10;;;3.70;99.90;;;;;;5072837;28;20203;-77
2023/05/04 01:13:34;;;;;;;5.50;4.40;;;3.60;99.90;;;;;;5077467;28;20208;-77
2023/05/04 01:16:02;;;;;;;7.17;4.47;;;3.40;99.90;;;;;;5081372;28;20198;-77
2023/05/04 01:18:28;;;;;;;7.20;4.50;;;3.60;99.90;;;;;;5090092;28;20200;-77
2023/05/04 01:20:55;;;;;;;5.50;4.70;;;3.60;99.90;;;;;;5076779;28;20201;-77
2023/05/04 01:23:25;;;;;;;6.87;4.10;;;3.70;99.90;;;;;;5080102;28;20206;-77
2023/05/04 01:26:05;;;;;;;7.57;4.67;;;3.50;99.90;;;;;;5087910;28;20222;-77
2023/05/04 01:28:41;;;;;;;10.43;4.60;;;3.50;99.90;;;;;;5074491;28;20232;-77
2023/05/04 01:31:12;;;;;;;5.47;4.30;;;3.30;99.90;;;;;;5071424;28;20318;-77
2023/05/04 01:33:39;;;;;;;7.10;4.73;;;3.20;99.90;;;;;;5092643;28;20194;-77
2023/05/04 01:36:07;;;;;;;10.17;4.93;;;3.30;99.90;;;;;;5077600;28;20211;-77
2023/05/04 01:38:35;;;;;;;8.33;4.20;;;3.40;99.90;;;;;;5088953;28;20202;-77
2023/05/04 01:41:02;;;;;;;9.87;5.63;;;3.30;99.90;;;;;;5091001;28;20292;-77
2023/05/04 01:43:28;;;;;;;5.77;4.50;;;3.20;99.90;;;;;;5092147;28;20244;-77
2023/05/04 01:45:55;;;;;;;6.97;4.30;;;3.10;99.90;;;;;;5092288;28;20730;-77
2023/05/04 01:48:22;;;;;;;8.50;4.43;;;3.00;99.90;;;;;;5089205;28;20332;-77
2023/05/04 01:50:49;;;;;;;5.53;4.17;;;3.00;99.90;;;;;;5072503;28;20566;-79
2023/05/04 01:53:16;;;;;;;6.47;3.90;;;3.00;99.90;;;;;;5070108;28;20216;-77
2023/05/04 01:55:44;;;;;;;8.90;4.60;;;3.10;99.90;;;;;;5072429;28;20209;-77
2023/05/04 01:58:10;;;;;;;7.23;4.63;;;3.30;99.90;;;;;;5072157;28;20198;-78
2023/05/04 02:00:37;;;;;;;10.10;5.73;;;3.20;99.90;;;;;;5070865;28;20217;-77
2023/05/04 02:03:04;;;;;;;5.53;4.30;;;3.40;99.90;;;;;;5072286;28;20222;-77
2023/05/04 02:05:31;;;;;;;10.20;4.57;;;3.50;99.90;;;;;;5072072;28;20577;-77
2023/05/04 02:07:57;;;;;;;7.63;4.57;;;3.50;99.90;;;;;;5071726;28;20213;-77
2023/05/04 02:10:24;;;;;;;5.70;5.10;;;3.20;99.90;;;;;;5070957;28;20711;-77
2023/05/04 02:12:52;;;;;;;7.80;4.33;;;2.70;99.90;;;;;;5071622;28;20695;-77
2023/05/04 02:15:19;;;;;;;7.83;4.50;;;2.70;99.90;;;;;;5069981;28;20206;-77
2023/05/04 02:17:46;;;;;;;7.13;4.33;;;2.80;99.90;;;;;;5072445;28;20206;-78
2023/05/04 02:20:13;;;;;;;8.53;4.30;;;2.90;99.90;;;;;;5074497;28;20216;-78
2023/05/04 02:22:40;;;;;;;6.93;4.50;;;2.90;99.90;;;;;;5082475;28;20630;-79
2023/05/04 02:25:08;;;;;;;8.13;4.83;;;3.20;99.90;;;;;;5076056;28;20206;-78
2023/05/04 02:27:35;;;;;;;6.00;4.40;;;3.30;99.90;;;;;;5076391;28;20202;-79
2023/05/04 02:30:04;;;;;;;3.93;3.37;;;3.10;99.90;;;;;;5087053;28;20218;-78
2023/05/04 02:32:31;;;;;;;6.97;4.13;;;2.60;99.90;;;;;;5111354;28;20217;-79
2023/05/04 02:34:57;;;;;;;5.83;3.80;;;2.40;99.90;;;;;;5105543;28;20594;-78
2023/05/04 02:37:24;;;;;;;6.57;4.20;;;2.40;99.90;;;;;;5080952;28;20202;-78
2023/05/04 02:39:51;;;;;;;5.53;4.10;;;2.50;99.90;;;;;;5119158;28;20189;-78
2023/05/04 02:42:18;;;;;;;5.67;4.00;;;2.50;99.90;;;;;;5112597;28;20236;-78
2023/05/04 02:44:45;;;;;;;6.70;4.33;;;2.40;99.90;;;;;;5099077;28;20193;-78
2023/05/04 02:47:13;;;;;;;7.03;4.30;;;2.40;99.90;;;;;;5099980;28;20204;-78
2023/05/04 02:49:40;;;;;;;7.40;4.83;;;2.50;99.90;;;;;;5086522;28;20222;-78
2023/05/04 02:52:07;;;;;;;6.47;4.40;;;2.50;99.90;;;;;;5078023;28;20251;-78
2023/05/04 02:54:34;;;;;;;8.73;4.80;;;2.40;99.90;;;;;;5078012;28;20576;-78
2023/05/04 02:57:00;;;;;;;9.43;4.90;;;2.30;99.90;;;;;;5077715;28;20292;-78
2023/05/04 02:59:27;;;;;;;8.67;5.20;;;2.40;99.90;;;;;;5077289;28;20206;-78
2023/05/04 03:01:54;;;;;;;5.77;4.90;;;2.40;99.90;;;;;;5077423;28;20233;-78
2023/05/04 03:04:22;;;;;;;7.50;5.20;;;2.30;99.90;;;;;;5078710;28;20213;-77
2023/05/04 03:06:50;;;;;;;11.73;5.93;;;2.30;99.90;;;;;;5076706;28;20209;-77
2023/05/04 03:09:17;;;;;;;7.30;5.23;;;2.50;99.90;;;;;;5074748;28;20226;-78
2023/05/04 03:11:44;;;;;;;9.20;5.13;;;2.30;99.90;;;;;;5084458;28;20225;-77
2023/05/04 03:14:11;;;;;;;8.50;5.97;;;2.40;99.90;;;;;;5093583;28;20198;-77
2023/05/04 03:16:37;;;;;;;10.23;6.50;;;2.80;99.90;;;;;;5097043;28;20204;-78
2023/05/04 03:19:04;;;;;;;7.67;4.77;;;2.90;99.90;;;;;;5089037;28;20197;-78
2023/05/04 03:21:32;;;;;;;5.63;4.87;;;2.70;99.90;;;;;;5090881;28;20214;-77
2023/05/04 03:23:59;;;;;;;5.27;4.60;;;2.20;99.90;;;;;;5086349;28;20686;-78
2023/05/04 03:26:26;;;;;;;7.13;4.80;;;2.00;99.90;;;;;;5097335;28;20550;-78
2023/05/04 03:28:53;;;;;;;17.60;15.87;;;1.90;99.90;;;;;;5085619;28;20222;-78
2023/05/04 03:31:20;;;;;;;13.23;6.70;;;2.10;99.90;;;;;;5078119;28;20226;-78
2023/05/04 03:33:46;;;;;;;9.77;5.60;;;2.40;99.90;;;;;;5080199;28;20206;-78
2023/05/04 03:36:13;;;;;;;9.40;5.67;;;2.60;99.90;;;;;;5079546;28;20209;-79
2023/05/04 03:38:41;;;;;;;10.80;5.90;;;2.60;99.90;;;;;;5079117;28;20361;-78
2023/05/04 03:41:08;;;;;;;13.03;6.47;;;2.60;99.90;;;;;;5079828;28;20226;-78
2023/05/04 03:43:35;;;;;;;8.50;5.30;;;2.50;99.90;;;;;;5079516;28;20210;-78
2023/05/04 03:46:02;;;;;;;8.43;5.53;;;2.50;99.90;;;;;;5075951;28;20206;-78
2023/05/04 03:48:28;;;;;;;12.10;6.07;;;2.50;99.90;;;;;;5078607;28;20221;-78
2023/05/04 03:50:55;;;;;;;8.37;5.10;;;2.50;99.90;;;;;;5078113;28;20222;-78
2023/05/04 03:53:22;;;;;;;8.50;5.20;;;2.50;99.90;;;;;;5079189;28;20212;-78
2023/05/04 03:55:50;;;;;;;9.20;5.30;;;2.50;99.90;;;;;;5079952;28;20273;-79
2023/05/04 03:58:17;;;;;;;9.67;5.50;;;2.70;99.90;;;;;;5079205;28;20210;-78
2023/05/04 04:00:44;;;;;;;9.30;5.57;;;3.10;99.90;;;;;;5079204;28;20210;-79
2023/05/04 04:03:10;;;;;;;11.70;5.80;;;3.20;99.90;;;;;;5079016;28;20221;-78
2023/05/04 04:05:37;;;;;;;9.63;5.33;;;3.60;99.90;;;;;;5078897;28;20288;-78
2023/05/04 04:08:04;;;;;;;9.70;5.33;;;3.90;99.90;;;;;;5079276;28;20210;-79
2023/05/04 04:10:31;;;;;;;7.47;4.70;;;4.50;99.90;;;;;;5078289;28;20309;-79
2023/05/04 04:12:59;;;;;;;7.53;4.40;;;4.60;99.90;;;;;;5081942;28;20760;-78
2023/05/04 04:15:26;;;;;;;6.67;4.37;;;4.80;99.90;;;;;;5093926;28;20230;-78
2023/05/04 04:17:53;;;;;;;7.53;4.23;;;5.00;99.90;;;;;;5097429;28;20341;-79
2023/05/04 04:20:20;;;;;;;6.13;4.03;;;5.00;99.90;;;;;;5086682;28;20201;-79
2023/05/04 04:22:46;;;;;;;7.07;4.47;;;4.80;99.90;;;;;;5099904;28;20226;-79
2023/05/04 04:25:13;;;;;;;6.03;4.57;;;4.70;99.90;;;;;;5100275;28;20197;-78
2023/05/04 04:27:40;;;;;;;7.80;4.13;;;4.30;99.90;;;;;;5099688;28;20201;-77
2023/05/04 04:30:11;;;;;;;7.47;4.73;;;4.00;99.90;;;;;;5098607;28;20249;-77
2023/05/04 04:32:37;;;;;;;9.10;5.07;;;3.90;99.90;;;;;;5075944;28;20232;-78
2023/05/04 04:35:05;;;;;;;5.47;3.93;;;4.10;99.90;;;;;;5074432;28;20206;-77
2023/05/04 04:37:32;;;;;;;9.10;4.57;;;4.10;99.90;;;;;;5074664;28;20205;-77
2023/05/04 04:40:00;;;;;;;8.67;5.07;;;4.20;99.90;;;;;;5074470;28;20204;-78
2023/05/04 04:42:27;;;;;;;7.80;5.23;;;4.60;99.90;;;;;;5075271;28;20230;-77
2023/05/04 04:44:53;;;;;;;9.93;5.73;;;4.80;99.90;;;;;;5074924;28;20202;-77
2023/05/04 04:47:22;;;;;;;6.80;5.10;;;5.20;99.90;;;;;;5074843;28;20202;-77
2023/05/04 04:49:48;;;;;;;7.40;5.13;;;5.20;99.90;;;;;;5073484;28;20225;-77
2023/05/04 04:52:16;;;;;;;7.80;5.13;;;5.10;99.90;;;;;;5074680;28;20225;-76
2023/05/04 04:54:42;;;;;;;10.73;5.97;;;5.30;99.90;;;;;;5075035;28;20217;-77
2023/05/04 04:57:09;;;;;;;8.33;4.90;;;5.50;99.90;;;;;;5074292;28;20206;-77
2023/05/04 04:59:36;;;;;;;9.10;4.93;;;5.30;99.90;;;;;;5074319;28;20206;-78
2023/05/04 05:02:03;;;;;;;8.47;5.43;;;5.40;99.90;;;;;;5074828;28;20707;-77
2023/05/04 05:04:31;;;;;;;13.80;5.87;;;5.80;99.90;;;;;;5074993;28;20209;-77
2023/05/04 05:06:58;;;;;;;9.33;5.23;;;6.30;99.90;;;;;;5075844;28;20202;-77
2023/05/04 05:09:25;;;;;;;8.73;4.77;;;6.50;99.90;;;;;;5074691;28;20275;-78
2023/05/04 05:11:52;;;;;;;10.23;4.47;;;6.30;99.90;;;;;;5075128;28;20222;-77
2023/05/04 05:14:19;;;;;;;6.63;4.40;;;6.80;99.90;;;;;;5074895;28;20305;-77
2023/05/04 05:16:46;;;;;;;7.40;4.50;;;6.80;99.90;;;;;;5074147;28;20229;-77
2023/05/04 05:19:13;;;;;;;7.30;4.73;;;7.00;99.90;;;;;;5074005;28;20289;-77
2023/05/04 05:21:41;;;;;;;8.17;4.90;;;7.40;99.90;;;;;;5074188;28;20233;-76
2023/05/04 05:24:07;;;;;;;10.13;4.97;;;7.50;99.90;;;;;;5074412;28;20210;-77
2023/05/04 05:26:34;;;;;;;8.27;5.63;;;7.50;99.90;;;;;;5076565;28;20205;-77
2023/05/04 05:29:01;;;;;;;8.47;5.53;;;7.40;99.90;;;;;;5076555;28;20266;-78
2023/05/04 05:31:28;;;;;;;9.80;5.57;;;7.30;99.90;;;;;;5076351;28;20229;-78
2023/05/04 05:33:55;;;;;;;11.73;6.20;;;7.20;99.90;;;;;;5075611;28;20202;-77
2023/05/04 05:36:21;;;;;;;12.30;5.80;;;7.20;99.90;;;;;;5078805;28;20727;-78
2023/05/04 05:38:51;;;;;;;9.27;5.80;;;7.50;99.90;;;;;;5077820;28;20229;-78
2023/05/04 05:41:20;;;;;;;10.77;6.03;;;7.40;99.90;;;;;;5078124;28;20222;-77
2023/05/04 05:43:46;;;;;;;12.40;5.83;;;7.30;99.90;;;;;;5074357;28;20255;-77
2023/05/04 05:46:14;;;;;;;10.43;5.77;;;7.30;99.90;;;;;;5073427;28;20214;-77
2023/05/04 05:48:41;;;;;;;10.53;6.03;;;7.40;99.90;;;;;;5074394;28;20203;-78
2023/05/04 05:51:08;;;;;;;13.03;5.97;;;7.30;99.90;;;;;;5073111;28;20241;-77
2023/05/04 05:53:35;;;;;;;12.87;6.60;;;7.60;99.90;;;;;;5072964;28;20203;-77
2023/05/04 05:56:03;;;;;;;12.97;6.70;;;7.60;99.90;;;;;;5072420;28;20203;-77
2023/05/04 05:58:30;;;;;;;13.27;6.83;;;7.60;99.90;;;;;;5073090;28;20202;-77
2023/05/04 06:00:56;;;;;;;17.43;7.60;;;7.80;99.90;;;;;;5071825;28;20643;-77
2023/05/04 06:03:23;;;;;;;17.50;7.50;;;7.90;99.90;;;;;;5075869;28;20224;-78
2023/05/04 06:05:50;;;;;;;14.70;6.80;;;8.00;99.90;;;;;;5076586;28;20688;-78
2023/05/04 06:08:17;;;;;;;13.47;6.50;;;8.10;99.90;;;;;;5073552;28;20729;-77
2023/05/04 06:10:44;;;;;;;14.27;6.50;;;8.10;99.90;;;;;;5073364;28;20229;-77
2023/05/04 06:13:12;;;;;;;12.33;6.20;;;8.40;99.90;;;;;;5073222;28;20206;-77
2023/05/04 06:15:38;;;;;;;12.07;5.53;;;8.70;99.90;;;;;;5073447;28;20221;-76
2023/05/04 06:18:05;;;;;;;10.90;5.47;;;8.60;99.90;;;;;;5073561;28;20197;-77
2023/05/04 06:20:32;;;;;;;10.90;6.57;;;8.80;99.90;;;;;;5072862;28;20656;-77
2023/05/04 06:22:59;;;;;;;14.50;6.37;;;8.60;99.90;;;;;;5075825;28;20233;-76
2023/05/04 06:25:26;;;;;;;12.73;6.87;;;8.50;99.90;;;;;;5088162;28;20297;-76
2023/05/04 06:27:52;;;;;;;14.17;6.07;;;8.60;99.90;;;;;;5094538;28;20216;-78
2023/05/04 06:30:23;;;;;;;11.00;6.20;;;8.50;99.90;;;;;;5097025;28;20225;-77
2023/05/04 06:32:50;;;;;;;14.17;6.77;;;8.60;99.90;;;;;;5093018;28;20570;-77
2023/05/04 06:35:17;;;;;;;16.30;6.60;;;8.50;99.90;;;;;;5086060;28;20201;-77
2023/05/04 06:37:44;;;;;;;9.20;6.03;;;8.80;99.90;;;;;;5093167;28;20265;-77
2023/05/04 06:40:12;;;;;;;11.60;6.77;;;8.90;99.90;;;;;;5092912;28;20243;-77
2023/05/04 06:42:39;;;;;;;9.57;5.57;;;9.20;99.90;;;;;;5093273;28;20225;-78
2023/05/04 06:45:07;;;;;;;13.70;6.83;;;9.40;99.90;;;;;;5074531;28;20213;-77
2023/05/04 06:47:36;;;;;;;10.67;6.20;;;9.50;99.90;;;;;;5073802;28;20716;-78
2023/05/04 06:50:08;;;;;;;8.33;5.30;;;9.60;99.90;;;;;;5073205;28;20248;-78
2023/05/04 06:52:35;;;;;;;8.10;5.43;;;10.00;99.90;;;;;;5073733;28;20293;-78
2023/05/04 06:55:02;;;;;;;10.70;5.70;;;9.90;99.90;;;;;;5081752;28;20207;-77
2023/05/04 06:57:29;;;;;;;10.57;5.77;;;10.00;99.90;;;;;;5112715;28;20204;-77
2023/05/04 06:59:56;;;;;;;10.73;5.40;;;10.10;99.90;;;;;;5103464;28;20683;-77
2023/05/04 07:02:23;;;;;;;14.23;5.23;;;10.50;99.90;;;;;;5085481;28;20599;-77
2023/05/04 07:04:52;;;;;;;9.43;5.20;;;10.10;99.90;;;;;;5088584;28;20292;-77
2023/05/04 07:07:19;;;;;;;10.53;5.23;;;10.00;99.90;;;;;;5091676;28;20205;-77
2023/05/04 07:09:47;;;;;;;8.33;4.93;;;10.30;99.90;;;;;;5102036;28;20204;-78
2023/05/04 07:12:13;;;;;;;7.37;4.70;;;10.30;99.90;;;;;;5105775;28;20228;-78
2023/05/04 07:14:40;;;;;;;14.13;4.80;;;10.40;99.90;;;;;;5110437;28;20201;-77
2023/05/04 07:17:08;;;;;;;8.80;5.17;;;10.30;99.90;;;;;;5114065;28;20207;-77
2023/05/04 07:19:35;;;;;;;9.63;5.10;;;10.40;99.90;;;;;;5090277;28;20660;-77
2023/05/04 07:22:03;;;;;;;8.10;4.60;;;10.50;99.90;;;;;;5077032;28;20226;-77
2023/05/04 07:24:30;;;;;;;8.80;4.93;;;10.60;99.90;;;;;;5076404;28;20686;-77
2023/05/04 07:26:57;;;;;;;7.63;4.50;;;10.60;99.90;;;;;;5076442;28;20202;-78
2023/05/04 07:29:25;;;;;;;12.30;5.07;;;10.80;99.90;;;;;;5075697;28;20202;-77
2023/05/04 07:31:52;;;;;;;11.63;6.00;;;10.90;99.90;;;;;;5075387;28;20704;-78
2023/05/04 07:34:18;;;;;;;9.10;5.00;;;11.00;99.90;;;;;;5076681;28;20210;-77
2023/05/04 07:36:45;;;;;;;8.83;5.47;;;11.00;99.90;;;;;;5076805;28;20220;-77
2023/05/04 07:39:15;;;;;;;11.57;5.43;;;11.20;99.90;;;;;;5076027;28;20206;-77
2023/05/04 07:41:42;;;;;;;11.37;5.63;;;11.20;99.90;;;;;;5076439;28;20245;-78
2023/05/04 07:44:10;;;;;;;14.87;5.73;;;11.20;99.90;;;;;;5095746;28;20217;-77
2023/05/04 07:46:37;;;;;;;10.20;5.57;;;11.20;99.90;;;;;;5096563;28;20209;-77
2023/05/04 07:49:04;;;;;;;10.47;5.40;;;11.10;99.90;;;;;;5089601;28;20206;-77
2023/05/04 07:51:31;;;;;;;8.83;5.50;;;11.20;99.90;;;;;;5095907;28;20609;-77
2023/05/04 07:53:58;;;;;;;8.77;5.33;;;11.20;99.90;;;;;;5083638;28;20305;-76
2023/05/04 07:56:26;;;;;;;10.00;5.73;;;11.30;99.90;;;;;;5073517;28;20686;-75
2023/05/04 07:58:53;;;;;;;12.33;5.67;;;11.40;99.90;;;;;;5074126;28;20216;-77
2023/05/04 08:01:20;;;;;;;13.50;6.30;;;11.40;99.90;;;;;;5072708;28;20230;-77
2023/05/04 08:03:47;;;;;;;12.70;5.47;;;11.50;99.90;;;;;;5074514;28;20248;-76
2023/05/04 08:06:16;;;;;;;10.60;5.70;;;11.70;99.90;;;;;;5075323;28;20202;-77
2023/05/04 08:08:43;;;;;;;10.17;5.50;;;11.80;99.90;;;;;;5074877;28;20301;-77
2023/05/04 08:11:12;;;;;;;10.83;5.43;;;11.90;99.90;;;;;;5075318;28;20239;-77
2023/05/04 08:13:40;;;;;;;12.90;5.60;;;12.10;99.90;;;;;;5076835;28;20206;-77
2023/05/04 08:16:07;;;;;;;13.40;5.57;;;12.20;99.90;;;;;;5094587;28;20477;-77
2023/05/04 08:18:34;;;;;;;13.13;5.20;;;12.40;99.90;;;;;;5094600;28;20201;-77
2023/05/04 08:21:01;;;;;;;7.97;4.97;;;12.40;99.90;;;;;;5081356;28;20199;-77
2023/05/04 08:23:27;;;;;;;9.07;5.10;;;12.50;99.90;;;;;;5088807;28;20651;-76
2023/05/04 08:25:54;;;;;;;10.87;5.20;;;12.40;99.90;;;;;;5093594;28;20197;-76
2023/05/04 08:28:21;;;;;;;11.13;4.90;;;12.70;99.90;;;;;;5091528;28;20217;-77
2023/05/04 08:30:49;;;;;;;9.37;5.17;;;12.70;99.90;;;;;;5105007;28;20591;-77
2023/05/04 08:33:16;;;;;;;6.90;5.10;;;12.90;99.90;;;;;;5095977;28;20241;-76
2023/05/04 08:35:43;;;;;;;10.53;5.67;;;12.80;99.90;;;;;;5082820;28;20210;-77
2023/05/04 08:38:09;;;;;;;7.87;4.90;;;13.10;99.90;;;;;;5072826;28;20574;-77
2023/05/04 08:40:40;;;;;;;10.77;5.00;;;13.20;99.90;;;;;;5072306;28;20202;-77
2023/05/04 08:43:07;;;;;;;10.63;5.13;;;13.60;99.90;;;;;;5074696;28;20237;-77
2023/05/04 08:45:38;;;;;;;8.13;4.90;;;13.60;99.90;;;;;;5075391;28;20297;-77
2023/05/04 08:48:07;;;;;;;10.23;5.67;;;13.60;99.90;;;;;;5075203;28;20202;-76
2023/05/04 08:50:34;;;;;;;9.97;5.40;;;13.80;99.90;;;;;;5074275;28;20290;-78
2023/05/04 08:53:04;;;;;;;8.23;5.10;;;14.00;99.90;;;;;;5074915;28;20230;-77
2023/05/04 08:55:33;;;;;;;9.47;4.93;;;13.70;99.90;;;;;;5074553;28;20232;-77
2023/05/04 08:58:03;;;;;;;11.17;5.40;;;13.80;99.90;;;;;;5072303;28;20260;-76
2023/05/04 09:00:32;;;;;;;8.77;5.10;;;14.10;99.90;;;;;;5072633;28;20210;-76
2023/05/04 09:03:02;;;;;;;7.77;4.90;;;14.20;99.90;;;;;;5097115;28;20249;-77
2023/05/04 09:05:31;;;;;;;12.83;5.20;;;14.10;99.90;;;;;;5113809;28;20201;-77
2023/05/04 09:07:58;;;;;;;8.80;5.00;;;14.00;99.90;;;;;;5091720;28;20297;-77
2023/05/04 09:10:25;;;;;;;10.10;5.87;;;14.20;99.90;;;;;;5073711;28;20217;-77
2023/05/04 09:12:54;;;;;;;8.23;5.57;;;14.40;99.90;;;;;;5075272;28;20230;-77
2023/05/04 09:15:22;;;;;;;8.40;4.73;;;14.60;99.90;;;;;;5075099;28;20202;-77
2023/05/04 09:17:57;;;;;;;10.63;5.10;;;14.60;99.90;;;;;;5073969;28;20202;-76
2023/05/04 09:20:24;;;;;;;8.83;4.63;;;14.90;99.90;;;;;;5074297;28;20201;-77
2023/05/04 09:23:06;;;;;;;8.77;4.78;;;14.80;99.90;;;;;;5075110;28;20295;-77
2023/05/04 09:25:34;;;;;;;12.45;5.95;;;14.70;99.90;;;;;;5095294;28;20208;-77
2023/05/04 09:28:01;;;;;;;10.43;5.28;;;15.00;99.90;;;;;;5092207;28;20251;-77
2023/05/04 09:30:27;;;;;;;7.22;4.32;;;15.50;99.90;;;;;;5075186;28;20222;-77
2023/05/04 09:32:54;;;;;;;11.02;5.22;;;16.10;99.90;;;;;;5074892;28;20730;-76
2023/05/04 09:35:28;;;;;;;10.18;5.57;;;16.00;99.90;;;;;;5074434;28;20228;-77
2023/05/04 09:37:56;;;;;;;6.63;4.63;;;15.70;99.90;;;;;;5073937;28;20442;-76
2023/05/04 09:40:32;;;;;;;6.50;4.25;;;15.90;99.90;;;;;;5072690;28;20628;-76
2023/05/04 09:42:59;;;;;;;10.93;5.60;;;16.10;99.90;;;;;;5074914;28;20221;-77
2023/05/04 09:45:27;;;;;;;9.55;4.97;;;16.00;99.90;;;;;;5073412;28;20203;-77
2023/05/04 09:47:57;;;;;;;8.18;4.40;;;16.20;99.90;;;;;;5074114;28;20209;-77
2023/05/04 09:50:25;;;;;;;8.70;4.53;;;16.50;1.00;;;;;;5091975;28;20256;-76
2023/05/04 09:52:53;;;;;;;8.50;5.28;;;16.20;1.00;;;;;;5092578;28;20217;-77
2023/05/04 09:55:23;;;;;;;7.45;5.00;;;16.40;1.00;;;;;;5091558;28;20198;-77
2023/05/04 09:57:51;;;;;;;9.57;4.70;;;16.60;1.00;;;;;;5081261;28;20214;-77
2023/05/04 10:00:19;;;;;;;9.07;4.15;;;16.40;1.00;;;;;;5073635;28;20215;-76
2023/05/04 10:02:47;;;;;;;10.00;4.18;;;16.30;1.00;;;;;;5073981;28;20257;-77
2023/05/04 10:05:16;;;;;;;5.38;3.63;;;16.70;1.00;;;;;;5075446;28;20225;-77
2023/05/04 10:07:43;;;;;;;6.47;3.70;;;16.80;1.00;;;;;;5075272;28;20211;-77
2023/05/04 10:10:12;;;;;;;6.18;3.60;;;17.20;99.90;;;;;;5074230;28;20672;-77
2023/05/04 10:12:39;;;;;;;7.70;3.63;;;17.70;99.90;;;;;;5075449;28;20241;-78
2023/05/04 10:15:08;;;;;;;6.30;3.38;;;17.80;1.00;;;;;;5074465;28;20209;-78
2023/05/04 10:17:54;;;;;;;5.28;3.30;;;18.40;1.00;;;;;;5075662;28;20671;-77
2023/05/04 10:20:56;;;;;;;7.13;4.03;;;18.10;1.00;;;;;;5071489;28;20682;-77
2023/05/04 10:23:48;;;;;;;7.30;3.90;;;17.50;99.90;;;;;;5074811;28;20213;-77
2023/05/04 10:26:41;;;;;;;4.97;3.17;;;18.30;99.90;;;;;;5074887;28;20208;-78
2023/05/04 10:29:15;;;;;;;5.50;3.53;;;17.40;99.90;;;;;;5073443;28;20735;-76
2023/05/04 10:31:44;;;;;;;4.57;3.72;;;17.50;99.90;;;;;;5079375;28;20229;-76
2023/05/04 10:34:11;;;;;;;6.47;3.80;;;17.40;1.00;;;;;;5091706;28;20205;-77
2023/05/04 10:36:38;;;;;;;9.93;3.63;;;17.60;1.00;;;;;;5092859;28;20198;-77
2023/05/04 10:39:06;;;;;;;6.22;3.85;;;17.70;1.00;;;;;;5094857;28;20201;-78
2023/05/04 10:41:32;;;;;;;6.68;3.55;;;18.10;1.00;;;;;;5094685;28;20255;-77
2023/05/04 10:44:03;;;;;;;5.78;3.85;;;18.30;1.00;;;;;;5095860;28;20216;-78
2023/05/04 10:46:30;;;;;;;6.88;3.97;;;18.00;1.00;;;;;;5094116;28;20251;-77
2023/05/04 10:48:58;;;;;;;6.18;4.13;;;17.70;99.90;;;;;;5095307;28;20292;-78
2023/05/04 10:51:26;;;;;;;7.60;3.90;;;17.60;99.90;;;;;;5092399;28;20226;-78
2023/05/04 10:53:53;;;;;;;5.47;3.60;;;17.30;99.90;;;;;;5095175;28;20651;-76
2023/05/04 10:56:21;;;;;;;7.18;4.10;;;17.70;99.90;;;;;;5098525;28;20202;-77
2023/05/04 10:58:49;;;;;;;8.90;3.70;;;17.90;1.00;;;;;;5098449;28;20239;-77
2023/05/04 11:01:18;;;;;;;9.40;4.13;;;17.30;1.00;;;;;;5098190;28;20232;-76
2023/05/04 11:03:45;;;;;;;6.53;3.70;;;17.50;99.90;;;;;;5097028;28;20251;-75
2023/05/04 11:06:17;;;;;;;5.78;3.67;;;17.60;1.00;;;;;;5097734;28;20197;-77
2023/05/04 11:08:46;;;;;;;5.20;3.97;;;17.50;1.00;;;;;;5096162;28;20206;-77
2023/05/04 11:11:13;;;;;;;7.78;4.32;;;17.30;1.00;;;;;;5094076;28;20218;-76
2023/05/04 11:13:43;;;;;;;5.07;4.07;;;17.60;1.00;;;;;;5096669;28;20205;-76
2023/05/04 11:16:11;;;;;;;4.68;3.83;;;17.70;1.00;;;;;;5096726;28;20206;-77
2023/05/04 11:18:39;;;;;;;5.57;4.07;;;17.30;1.00;;;;;;5096521;28;20201;-77
2023/05/04 11:21:07;;;;;;;7.43;4.05;;;17.20;1.00;;;;;;5099099;28;20217;-77
2023/05/04 11:23:36;;;;;;;6.00;3.60;;;17.50;1.00;;;;;;5100055;28;20258;-76
2023/05/04 11:26:07;;;;;;;6.10;4.00;;;17.60;1.00;;;;;;5099327;28;20202;-77
2023/05/04 11:28:36;;;;;;;5.47;3.75;;;17.60;1.00;;;;;;5098736;28;20208;-77
2023/05/04 11:31:12;;;;;;;4.93;4.05;;;17.40;1.00;;;;;;5098216;28;20263;-78
2023/05/04 11:33:44;;;;;;;8.50;3.78;;;17.50;1.00;;;;;;5100265;28;20201;-78
2023/05/04 11:36:11;;;;;;;4.70;3.75;;;17.50;1.00;;;;;;5098780;28;20292;-79
2023/05/04 11:38:39;;;;;;;8.27;3.75;;;17.60;1.00;;;;;;5096077;28;20198;-77
2023/05/04 11:41:06;;;;;;;4.93;3.80;;;17.70;1.00;;;;;;5094064;28;20282;-78
2023/05/04 11:43:33;;;;;;;8.45;4.10;;;17.60;1.00;;;;;;5097054;28;20570;-76
2023/05/04 11:46:01;;;;;;;6.85;4.10;;;17.60;1.00;;;;;;5097612;28;20206;-79
2023/05/04 11:48:28;;;;;;;5.03;3.40;;;17.50;1.00;;;;;;5099102;28;20202;-79
2023/05/04 11:50:56;;;;;;;5.03;3.58;;;18.00;99.90;;;;;;5099077;28;20682;-78
2023/05/04 11:53:23;;;;;;;9.48;3.42;;;18.20;99.90;;;;;;5099332;28;20232;-77
2023/05/04 11:55:53;;;;;;;8.32;4.18;;;17.80;99.90;;;;;;5101098;28;20206;-78
2023/05/04 11:58:24;;;;;;;6.32;3.70;;;17.80;99.90;;;;;;5099544;28;20650;-78
2023/05/04 12:00:55;;;;;;;6.18;3.47;;;17.80;99.90;;;;;;5097967;28;20213;-78
2023/05/04 12:03:26;;;;;;;5.10;3.47;;;17.70;99.90;;;;;;5098735;28;20201;-78
2023/05/04 12:05:54;;;;;;;4.63;3.22;;;17.80;1.00;;;;;;5096376;28;20205;-77
2023/05/04 12:08:25;;;;;;;3.78;3.38;;;17.70;1.00;;;;;;5091092;28;20206;-78
2023/05/04 12:11:08;;;;;;;5.13;3.30;;;17.70;1.00;;;;;;5097462;28;20197;-78
2023/05/04 12:13:36;;;;;;;5.60;3.63;;;18.00;1.00;;;;;;5098571;28;20326;-79
2023/05/04 12:16:10;;;;;;;4.88;3.42;;;18.20;1.00;;;;;;5099097;28;20205;-77
2023/05/04 12:18:37;;;;;;;5.35;3.92;;;18.40;1.00;;;;;;5088692;28;20433;-78
2023/05/04 12:21:14;;;;;;;5.63;3.63;;;18.00;99.90;;;;;;5089774;28;20293;-78
2023/05/04 12:23:42;;;;;;;5.80;3.45;;;18.00;99.90;;;;;;5080220;28;20675;-77
2023/05/04 12:26:10;;;;;;;5.75;3.78;;;17.50;1.00;;;;;;5087345;28;20201;-77
2023/05/04 12:28:38;;;;;;;10.85;3.50;;;17.50;75.60;;;;;;5084220;28;20194;-78
2023/05/04 12:31:06;;;;;;;7.05;3.63;;;17.90;1.00;;;;;;5097557;28;20228;-77
2023/05/04 12:33:33;;;;;;;5.78;3.35;;;18.10;1.00;;;;;;5091593;28;20756;-79
2023/05/04 12:36:01;;;;;;;4.97;3.00;;;18.20;1.00;;;;;;5085464;28;20194;-78
2023/05/04 12:38:28;;;;;;;6.47;4.03;;;18.20;1.00;;;;;;5078490;28;20210;-77
2023/05/04 12:40:57;;;;;;;7.40;3.38;;;17.80;1.00;;;;;;5076069;28;20240;-77
2023/05/04 12:43:26;;;;;;;4.63;3.22;;;17.50;1.00;;;;;;5086312;28;20293;-78
2023/05/04 12:45:53;;;;;;;5.88;3.63;;;18.10;1.00;;;;;;5084530;28;20199;-78
2023/05/04 12:48:20;;;;;;;5.70;3.70;;;18.00;99.90;;;;;;5077504;28;20206;-78
2023/05/04 12:50:48;;;;;;;6.10;3.53;;;18.00;99.90;;;;;;5077400;28;20210;-77
2023/05/04 12:53:15;;;;;;;5.07;3.63;;;18.10;99.90;;;;;;5081743;28;20219;-79
2023/05/04 12:55:42;;;;;;;5.50;3.70;;;18.30;1.00;;;;;;5080668;28;20202;-76